createdAt,value
2023-03-18T00:00:43.652Z,99708.78
2023-03-18T00:05:45.481Z,99701.84
2023-03-18T00:10:46.680Z,99701.84
2023-03-18T00:15:47.964Z,99712.22
2023-03-18T00:20:49.156Z,99710.06
2023-03-18T00:25:50.531Z,99717.06
2023-03-18T00:30:51.767Z,99717.22
2023-03-18T00:35:53.306Z,99725.56
2023-03-18T00:41:01.162Z,99711.38
2023-03-18T00:46:02.303Z,99695.63
2023-03-18T00:51:03.882Z,99698.97
2023-03-18T00:56:05.811Z,99703.28
2023-03-18T01:01:07.239Z,99714.56
2023-03-18T01:06:08.426Z,99707.19
2023-03-18T01:11:09.571Z,99702.75
2023-03-18T01:16:10.839Z,99708.34
2023-03-18T01:21:12.114Z,99711.44
2023-03-18T01:26:13.327Z,99692.91
2023-03-18T01:31:15.355Z,99684.41
2023-03-18T01:36:17.550Z,99701.53
2023-03-18T01:41:18.870Z,99704.44
2023-03-18T01:46:20.277Z,99704.44
2023-03-18T01:51:21.542Z,99699.19
2023-03-18T01:56:22.678Z,99687.59
2023-03-18T02:01:23.934Z,99683.09
2023-03-18T02:06:25.245Z,99673.22
2023-03-18T02:11:27.042Z,99662.25
2023-03-18T02:16:28.312Z,99680.16
2023-03-18T02:21:29.615Z,99690.47
2023-03-18T02:26:30.862Z,99687.19
2023-03-18T02:31:32.007Z,99681.97
2023-03-18T02:36:33.236Z,99677.97
2023-03-18T02:41:34.421Z,99680.34
2023-03-18T02:46:36.334Z,99669.69
2023-03-18T02:51:37.570Z,99685.97
2023-03-18T02:56:38.905Z,99690.84
2023-03-18T03:01:40.118Z,99689.81
2023-03-18T03:06:41.393Z,99693.81
2023-03-18T03:11:42.811Z,99698.19
2023-03-18T03:16:44.347Z,99708.91
2023-03-18T03:21:45.568Z,99717.94
2023-03-18T03:26:46.764Z,99711.34
2023-03-18T03:31:47.972Z,99718.38
2023-03-18T03:36:49.850Z,99722.25
2023-03-18T03:41:51.162Z,99728.81
2023-03-18T03:46:52.457Z,99730.38
2023-03-18T03:51:53.705Z,99738.72
2023-03-18T03:56:54.861Z,99735.44
2023-03-18T04:01:57.030Z,99744.34
2023-03-18T04:06:58.382Z,99747.25
2023-03-18T04:11:59.566Z,99747.25
2023-03-18T04:17:00.772Z,99747.81
2023-03-18T04:22:02.186Z,99746.88
2023-03-18T04:27:03.375Z,99768.94
2023-03-18T04:32:04.574Z,99762.75
2023-03-18T04:37:05.768Z,99781.16
2023-03-18T04:42:07.334Z,99789.31
2023-03-18T04:47:08.460Z,99781.16
2023-03-18T04:52:09.727Z,99785.81
2023-03-18T04:57:11.052Z,99787.84
2023-03-18T05:02:12.244Z,99783.16
2023-03-18T05:07:14.524Z,99782.94
2023-03-18T05:12:15.903Z,99778.38
2023-03-18T05:17:17.227Z,99782.50
2023-03-18T05:22:18.461Z,99782.88
2023-03-18T05:27:19.725Z,99787.13
2023-03-18T05:32:20.945Z,99796.84
2023-03-18T05:37:22.214Z,99792.16
2023-03-18T05:42:23.430Z,99794.91
2023-03-18T05:47:24.608Z,99796.31
2023-03-18T05:52:25.832Z,99805.03
2023-03-18T05:57:26.957Z,99811.66
2023-03-18T06:02:28.264Z,99814.09
2023-03-18T06:07:30.446Z,99808.97
2023-03-18T06:12:31.599Z,99824.88
2023-03-18T06:17:32.827Z,99824.28
2023-03-18T06:22:34.027Z,99832.03
2023-03-18T06:27:35.469Z,99828.72
2023-03-18T06:32:36.762Z,99838.78
2023-03-18T06:37:38.162Z,99844.38
2023-03-18T06:42:39.391Z,99845.44
2023-03-18T06:47:41.030Z,99843.81
2023-03-18T06:52:42.405Z,99844.22
2023-03-18T06:57:44.875Z,99839.38
2023-03-18T07:02:46.103Z,99846.31
2023-03-18T07:07:48.416Z,99851.94
2023-03-18T07:12:50.379Z,99858.56
2023-03-18T07:17:52.505Z,99859.47
2023-03-18T07:22:53.733Z,99862.38
2023-03-18T07:27:54.923Z,99860.22
2023-03-18T07:32:56.488Z,99865.78
2023-03-18T07:37:57.765Z,99870.22
2023-03-18T07:42:58.945Z,99878.69
2023-03-18T07:48:00.156Z,99877.72
2023-03-18T07:53:01.594Z,99896.94
2023-03-18T07:58:04.577Z,99895.84
2023-03-18T08:03:07.171Z,99903.84
2023-03-18T08:08:08.351Z,99912.78
2023-03-18T08:13:09.766Z,99921.19
2023-03-18T08:18:10.999Z,99912.94
2023-03-18T08:23:12.770Z,99922.31
2023-03-18T08:28:13.990Z,99933.84
2023-03-18T08:33:15.815Z,99927.63
2023-03-18T08:38:16.968Z,99922.31
2023-03-18T08:43:18.217Z,99926.94
2023-03-18T08:48:19.346Z,99931.53
2023-03-18T08:53:20.553Z,99934.81
2023-03-18T08:58:21.761Z,99941.38
2023-03-18T09:03:24.205Z,99933.78
2023-03-18T09:08:25.659Z,99939.84
2023-03-18T09:13:26.805Z,99934.78
2023-03-18T09:18:28.203Z,99934.25
2023-03-18T09:23:29.394Z,99929.16
2023-03-18T09:28:31.010Z,99923.53
2023-03-18T09:33:32.183Z,99918.09
2023-03-18T09:38:33.394Z,99916.88
2023-03-18T09:43:34.585Z,99924.00
2023-03-18T09:48:35.784Z,99932.50
2023-03-18T09:53:37.430Z,99934.38
2023-03-18T09:58:38.586Z,99939.00
2023-03-18T10:03:39.821Z,99929.06
2023-03-18T10:08:41.398Z,99938.91
2023-03-18T10:13:42.645Z,99921.56
2023-03-18T10:18:44.688Z,99930.34
2023-03-18T10:23:46.284Z,99934.41
2023-03-18T10:28:49.153Z,99927.78
2023-03-18T10:33:50.397Z,99925.72
2023-03-18T10:38:51.787Z,99921.13
2023-03-18T10:43:53.022Z,99917.03
2023-03-18T10:48:54.207Z,99930.28
2023-03-18T10:53:55.520Z,99922.41
2023-03-18T10:58:57.469Z,99916.66
2023-03-18T11:03:59.273Z,99918.69
2023-03-18T11:09:00.601Z,99919.44
2023-03-18T11:14:02.297Z,99910.72
2023-03-18T11:19:03.561Z,99911.50
2023-03-18T11:24:10.294Z,99919.03
2023-03-18T11:29:11.545Z,99919.19
2023-03-18T11:34:12.686Z,99918.44
2023-03-18T11:39:13.918Z,99914.13
2023-03-18T11:44:15.381Z,99931.38
2023-03-18T11:49:17.282Z,99922.72
2023-03-18T11:54:18.497Z,99918.22
2023-03-18T11:59:19.655Z,99912.34
2023-03-18T12:04:21.862Z,99913.66
2023-03-18T12:09:23.460Z,99909.84
2023-03-18T12:14:25.978Z,99898.91
2023-03-18T12:19:27.180Z,99893.78
2023-03-18T12:24:28.334Z,99900.81
2023-03-18T12:29:29.514Z,99901.94
2023-03-18T12:34:30.736Z,99895.50
2023-03-18T12:39:33.722Z,99887.97
2023-03-18T12:44:34.886Z,99886.22
2023-03-18T12:49:36.065Z,99875.00
2023-03-18T12:54:37.257Z,99871.69
2023-03-18T12:59:38.457Z,99825.91
2023-03-18T13:04:39.919Z,99849.91
2023-03-18T13:09:41.189Z,99852.66
2023-03-18T13:14:42.719Z,99845.53
2023-03-18T13:19:43.944Z,99847.81
2023-03-18T13:24:45.161Z,99854.31
2023-03-18T13:29:46.652Z,99848.22
2023-03-18T13:34:47.885Z,99854.78
2023-03-18T13:39:49.051Z,99858.66
2023-03-18T13:44:51.072Z,99851.72
2023-03-18T13:49:52.276Z,99844.94
2023-03-18T13:54:53.520Z,99859.75
2023-03-18T13:59:54.721Z,99855.69
2023-03-18T14:04:58.278Z,99854.97
2023-03-18T14:10:15.270Z,99855.94
2023-03-18T14:15:18.735Z,99857.03
2023-03-18T14:20:20.353Z,99856.28
2023-03-18T14:25:21.857Z,99851.00
2023-03-18T14:30:23.145Z,99851.41
2023-03-18T14:35:28.091Z,99860.44
2023-03-18T14:40:29.323Z,99849.88
2023-03-18T14:45:31.029Z,99845.34
2023-03-18T14:50:32.722Z,99833.44
2023-03-18T14:55:34.789Z,99825.13
2023-03-18T15:00:36.292Z,99823.34
2023-03-18T15:05:37.504Z,99824.00
2023-03-18T15:10:38.793Z,99818.38
2023-03-18T15:15:40.011Z,99815.81
2023-03-18T15:20:41.220Z,99818.38
2023-03-18T15:25:42.466Z,99818.63
2023-03-18T15:30:44.457Z,99813.53
2023-03-18T15:35:46.153Z,99806.00
2023-03-18T15:40:47.828Z,99803.97
2023-03-18T15:45:49.046Z,99811.31
2023-03-18T15:50:50.579Z,99809.72
2023-03-18T15:55:51.817Z,99817.63
2023-03-18T16:00:53.084Z,99812.88
2023-03-18T16:05:54.332Z,99815.97
2023-03-18T16:10:55.831Z,99807.38
2023-03-18T16:15:57.313Z,99816.41
2023-03-18T16:20:58.609Z,99810.44
2023-03-18T16:25:59.941Z,99817.19
2023-03-18T16:31:01.577Z,99817.22
2023-03-18T16:36:03.991Z,99783.59
2023-03-18T16:41:05.276Z,99821.41
2023-03-18T16:46:06.568Z,99827.66
2023-03-18T16:51:07.806Z,99831.06
2023-03-18T16:56:09.019Z,99833.16
2023-03-18T17:01:11.389Z,99842.81
2023-03-18T17:06:13.144Z,99842.31
2023-03-18T17:11:14.345Z,99842.06
2023-03-18T17:16:15.615Z,99850.81
2023-03-18T17:21:17.122Z,99855.03
2023-03-18T17:26:18.735Z,99862.81
2023-03-18T17:31:20.880Z,99854.53
2023-03-18T17:36:22.450Z,99863.00
2023-03-18T17:41:23.871Z,99862.31
2023-03-18T17:46:25.144Z,99861.63
2023-03-18T17:51:27.412Z,99863.22
2023-03-18T17:56:30.412Z,99876.56
2023-03-18T18:01:31.703Z,99882.00
2023-03-18T18:06:33.902Z,99884.78
2023-03-18T18:11:35.321Z,99888.34
2023-03-18T18:16:37.461Z,99889.91
2023-03-18T18:21:38.686Z,99896.13
2023-03-18T18:26:39.913Z,99893.94
2023-03-18T18:31:41.521Z,99890.38
2023-03-18T18:36:43.049Z,99899.22
2023-03-18T18:41:46.222Z,99902.44
2023-03-18T18:46:47.454Z,99903.34
2023-03-18T18:51:48.759Z,99910.09
2023-03-18T18:56:50.379Z,99913.44
2023-03-18T19:01:51.928Z,99918.66
2023-03-18T19:06:53.728Z,99917.53
2023-03-18T19:11:56.599Z,99915.66
2023-03-18T19:16:58.737Z,99919.25
2023-03-18T19:22:00.450Z,99921.75
2023-03-18T19:27:02.265Z,99933.53
2023-03-18T19:32:03.669Z,99925.53
2023-03-18T19:37:05.891Z,99931.25
2023-03-18T19:42:07.349Z,99939.38
2023-03-18T19:47:08.885Z,99940.38
2023-03-18T19:52:10.042Z,99943.44
2023-03-18T19:57:11.268Z,99949.25
2023-03-18T20:02:12.542Z,99946.28
2023-03-18T20:07:13.732Z,99953.50
2023-03-18T20:12:15.345Z,99957.75
2023-03-18T20:17:16.528Z,99952.75
2023-03-18T20:22:17.775Z,99955.38
2023-03-18T20:27:18.991Z,99968.09
2023-03-18T20:32:20.245Z,99968.50
2023-03-18T20:37:21.793Z,99974.00
2023-03-18T20:42:23.063Z,99968.63
2023-03-18T20:47:24.232Z,99965.75
2023-03-18T20:52:25.837Z,99971.97
2023-03-18T20:57:27.404Z,99975.06
2023-03-18T21:02:28.969Z,99982.22
2023-03-18T21:07:30.668Z,99975.31
2023-03-18T21:12:31.868Z,99967.44
2023-03-18T21:17:33.074Z,99969.09
2023-03-18T21:22:34.288Z,99968.28
2023-03-18T21:27:35.504Z,99970.44
2023-03-18T21:32:41.000Z,99963.78
2023-03-18T21:37:42.257Z,99960.84
2023-03-18T21:42:43.828Z,99962.41
2023-03-18T21:47:45.148Z,99962.59
2023-03-18T21:52:46.642Z,99965.75
2023-03-18T21:57:49.121Z,99962.69
2023-03-18T22:02:50.908Z,99959.78
2023-03-18T22:07:52.108Z,99958.41
2023-03-18T22:12:53.397Z,99946.75
2023-03-18T22:17:54.755Z,99947.22
2023-03-18T22:22:56.016Z,99941.38
2023-03-18T22:27:57.294Z,99945.44
2023-03-18T22:32:58.510Z,99942.81
2023-03-18T22:37:59.857Z,99945.91
2023-03-18T22:43:01.381Z,99945.31
2023-03-18T22:48:02.670Z,99946.53
2023-03-18T22:53:03.831Z,99941.16
2023-03-18T22:58:05.016Z,99958.06
2023-03-18T23:03:06.211Z,99972.75
2023-03-18T23:08:07.531Z,99960.47
2023-03-18T23:13:08.760Z,99967.19
2023-03-18T23:18:09.898Z,99985.81
2023-03-18T23:23:11.650Z,99981.81
2023-03-18T23:28:12.978Z,99981.94
2023-03-18T23:33:14.290Z,99974.06
2023-03-18T23:38:15.505Z,99961.81
2023-03-18T23:43:16.653Z,99964.81
2023-03-18T23:48:17.778Z,99971.38
2023-03-18T23:53:18.985Z,99968.22
2023-03-18T23:58:20.275Z,99964.47
